createdAt,value
2022-11-06T00:00:59.169Z,0
2022-11-06T00:02:00.077Z,0
2022-11-06T00:02:59.506Z,0
2022-11-06T00:03:59.186Z,0
2022-11-06T00:04:59.152Z,0
2022-11-06T00:05:59.419Z,0
2022-11-06T00:06:59.141Z,0
2022-11-06T00:08:02.115Z,0
2022-11-06T00:08:59.150Z,0
2022-11-06T00:09:59.273Z,0
2022-11-06T00:10:59.208Z,0
2022-11-06T00:11:59.306Z,0
2022-11-06T00:12:59.164Z,0
2022-11-06T00:13:59.192Z,0
2022-11-06T00:14:59.163Z,0
2022-11-06T00:15:59.172Z,0
2022-11-06T00:16:59.153Z,0
2022-11-06T00:17:59.239Z,0
2022-11-06T00:18:59.233Z,0
2022-11-06T00:19:59.155Z,0
2022-11-06T00:20:59.180Z,0
2022-11-06T00:21:59.208Z,0
2022-11-06T00:22:59.166Z,0
2022-11-06T00:23:59.160Z,0
2022-11-06T00:24:59.192Z,0
2022-11-06T00:25:59.196Z,0
2022-11-06T00:27:01.545Z,0
2022-11-06T00:27:59.205Z,0
2022-11-06T00:28:59.211Z,0
2022-11-06T00:29:59.169Z,0
2022-11-06T00:30:59.188Z,0
2022-11-06T00:31:59.173Z,0
2022-11-06T00:32:59.179Z,0
2022-11-06T00:33:59.257Z,0
2022-11-06T00:34:59.193Z,0
2022-11-06T00:35:59.182Z,0
2022-11-06T00:36:59.218Z,0
2022-11-06T00:37:59.216Z,0
2022-11-06T00:38:59.323Z,0
2022-11-06T00:39:59.196Z,0
2022-11-06T00:40:59.198Z,0
2022-11-06T00:41:59.198Z,0
2022-11-06T00:42:59.212Z,0
2022-11-06T00:43:59.192Z,0
2022-11-06T00:44:59.217Z,0
2022-11-06T00:45:59.202Z,0
2022-11-06T00:46:59.195Z,0
2022-11-06T00:47:59.206Z,0
2022-11-06T00:48:59.202Z,0
2022-11-06T00:49:59.399Z,0
2022-11-06T00:51:02.191Z,0
2022-11-06T00:51:59.229Z,0
2022-11-06T00:52:59.202Z,0
2022-11-06T00:53:59.304Z,0
2022-11-06T00:54:59.199Z,0
2022-11-06T00:55:59.212Z,0
2022-11-06T00:56:59.213Z,0
2022-11-06T00:57:59.223Z,0
2022-11-06T00:58:59.246Z,0
2022-11-06T00:59:59.212Z,0
2022-11-06T01:00:59.229Z,0
2022-11-06T01:02:02.978Z,0
2022-11-06T01:02:59.925Z,0
2022-11-06T01:03:59.246Z,0
2022-11-06T01:04:59.252Z,0
2022-11-06T01:05:59.289Z,0
2022-11-06T01:07:02.247Z,0
2022-11-06T01:07:59.273Z,0
2022-11-06T01:08:59.232Z,0
2022-11-06T01:09:59.262Z,0
2022-11-06T01:10:59.228Z,0
2022-11-06T01:12:19.637Z,0
2022-11-06T01:13:02.328Z,0
2022-11-06T01:13:59.249Z,0
2022-11-06T01:14:59.278Z,0
2022-11-06T01:15:59.221Z,0
2022-11-06T01:16:59.239Z,0
2022-11-06T01:18:00.884Z,0
2022-11-06T01:18:59.242Z,0
2022-11-06T01:19:59.242Z,0
2022-11-06T01:20:59.247Z,0
2022-11-06T01:21:59.386Z,0
2022-11-06T01:22:59.293Z,0
2022-11-06T01:24:02.211Z,0
2022-11-06T01:24:59.594Z,0
2022-11-06T01:25:59.418Z,0
2022-11-06T01:27:32.252Z,0
2022-11-06T01:27:59.287Z,0
2022-11-06T01:29:02.068Z,0
2022-11-06T01:29:59.273Z,0
2022-11-06T01:30:59.276Z,0
2022-11-06T01:31:59.257Z,0
2022-11-06T01:32:59.316Z,0
2022-11-06T01:33:59.266Z,0
2022-11-06T01:35:02.301Z,0
2022-11-06T01:35:59.303Z,0
2022-11-06T01:36:59.270Z,0
2022-11-06T01:37:59.414Z,0
2022-11-06T01:38:59.267Z,0
2022-11-06T01:40:02.280Z,0
2022-11-06T01:40:59.267Z,0
2022-11-06T01:41:59.383Z,0
2022-11-06T01:42:59.299Z,0
2022-11-06T01:43:59.276Z,0
2022-11-06T01:44:59.284Z,0
2022-11-06T01:46:02.207Z,0
2022-11-06T01:46:59.279Z,0
2022-11-06T01:47:59.319Z,0
2022-11-06T01:48:59.293Z,0
2022-11-06T01:49:59.301Z,0
2022-11-06T01:51:02.046Z,0
2022-11-06T01:51:59.296Z,0
2022-11-06T01:52:59.315Z,0
2022-11-06T01:53:59.406Z,0
2022-11-06T01:54:59.307Z,0
2022-11-06T01:55:59.306Z,0
2022-11-06T01:57:02.140Z,0
2022-11-06T01:57:59.364Z,0
2022-11-06T01:58:59.291Z,0
2022-11-06T01:59:59.439Z,0
2022-11-06T02:00:59.304Z,0
2022-11-06T02:02:03.208Z,0
2022-11-06T02:03:00.351Z,0
2022-11-06T02:03:59.319Z,0
2022-11-06T02:04:59.334Z,0
2022-11-06T02:05:59.336Z,0
2022-11-06T02:06:59.295Z,0
2022-11-06T02:08:02.099Z,0
2022-11-06T02:08:59.338Z,0
2022-11-06T02:09:59.469Z,0
2022-11-06T02:10:59.299Z,0
2022-11-06T02:11:59.310Z,0
2022-11-06T02:13:02.180Z,0
2022-11-06T02:13:59.354Z,0
2022-11-06T02:14:59.312Z,0
2022-11-06T02:15:59.351Z,0
2022-11-06T02:16:59.465Z,0
2022-11-06T02:17:59.353Z,0
2022-11-06T02:18:59.304Z,0
2022-11-06T02:19:59.307Z,0
2022-11-06T02:20:59.318Z,0
2022-11-06T02:21:59.313Z,0
2022-11-06T02:22:59.344Z,0
2022-11-06T02:24:02.076Z,0
2022-11-06T02:24:59.338Z,0
2022-11-06T02:25:59.416Z,0
2022-11-06T02:26:59.327Z,0
2022-11-06T02:27:59.440Z,0
2022-11-06T02:28:59.316Z,0
2022-11-06T02:29:59.357Z,0
2022-11-06T02:30:59.383Z,0
2022-11-06T02:31:59.337Z,0
2022-11-06T02:32:59.543Z,0
2022-11-06T02:33:59.352Z,0
2022-11-06T02:35:04.262Z,0
2022-11-06T02:35:59.351Z,0
2022-11-06T02:36:59.333Z,0
2022-11-06T02:37:59.370Z,0
2022-11-06T02:38:59.336Z,0
2022-11-06T02:39:59.344Z,0
2022-11-06T02:40:59.342Z,0
2022-11-06T02:41:59.408Z,0
2022-11-06T02:42:59.359Z,0
2022-11-06T02:43:59.348Z,0
2022-11-06T02:44:59.335Z,0
2022-11-06T02:45:59.364Z,0
2022-11-06T02:46:59.344Z,0
2022-11-06T02:47:59.387Z,0
2022-11-06T02:48:59.350Z,0
2022-11-06T02:49:59.392Z,0
2022-11-06T02:50:59.348Z,0
2022-11-06T02:51:59.372Z,0
2022-11-06T02:52:59.371Z,0
2022-11-06T02:53:59.381Z,0
2022-11-06T02:54:59.416Z,0
2022-11-06T02:55:59.354Z,0
2022-11-06T02:56:59.358Z,0
2022-11-06T02:57:59.441Z,0
2022-11-06T02:58:59.350Z,0
2022-11-06T02:59:59.350Z,0
2022-11-06T03:00:59.401Z,0
2022-11-06T03:02:00.058Z,0
2022-11-06T03:03:00.392Z,0
2022-11-06T03:03:59.363Z,0
2022-11-06T03:04:59.370Z,0
2022-11-06T03:05:59.393Z,0
2022-11-06T03:06:59.374Z,0
2022-11-06T03:07:59.373Z,0
2022-11-06T03:08:59.426Z,0
2022-11-06T03:09:59.366Z,0
2022-11-06T03:10:59.381Z,0
2022-11-06T03:11:59.396Z,0
2022-11-06T03:12:59.391Z,0
2022-11-06T03:13:59.589Z,0
2022-11-06T03:14:59.377Z,0
2022-11-06T03:15:59.409Z,0
2022-11-06T03:16:59.370Z,0
2022-11-06T03:18:02.374Z,0
2022-11-06T03:18:59.414Z,0
2022-11-06T03:19:59.431Z,0
2022-11-06T03:20:59.387Z,0
2022-11-06T03:21:59.410Z,0
2022-11-06T03:22:59.398Z,0
2022-11-06T03:23:59.431Z,0
2022-11-06T03:24:59.395Z,0
2022-11-06T03:25:59.401Z,0
2022-11-06T03:26:59.458Z,0
2022-11-06T03:27:59.415Z,0
2022-11-06T03:29:02.243Z,0
2022-11-06T03:29:59.516Z,0
2022-11-06T03:30:59.457Z,0
2022-11-06T03:31:59.421Z,0
2022-11-06T03:32:59.402Z,0
2022-11-06T03:33:59.779Z,0
2022-11-06T03:34:59.430Z,0
2022-11-06T03:35:59.458Z,0
2022-11-06T03:36:59.427Z,0
2022-11-06T03:37:59.460Z,0
2022-11-06T03:38:59.443Z,0
2022-11-06T03:40:02.188Z,0
2022-11-06T03:40:59.650Z,0
2022-11-06T03:41:59.430Z,0
2022-11-06T03:42:59.436Z,0
2022-11-06T03:43:59.446Z,0
2022-11-06T03:45:02.503Z,0
2022-11-06T03:45:59.470Z,0
2022-11-06T03:46:59.443Z,0
2022-11-06T03:47:59.427Z,0
2022-11-06T03:48:59.481Z,0
2022-11-06T03:49:59.457Z,0
2022-11-06T03:51:02.563Z,0
2022-11-06T03:51:59.445Z,0
2022-11-06T03:53:00.131Z,0
2022-11-06T03:53:59.506Z,0
2022-11-06T03:54:59.440Z,0
2022-11-06T03:56:02.364Z,0
2022-11-06T03:56:59.452Z,0
2022-11-06T03:57:59.535Z,0
2022-11-06T03:59:00.064Z,0
2022-11-06T03:59:59.654Z,0
2022-11-06T04:00:59.476Z,0
2022-11-06T04:02:03.135Z,0
2022-11-06T04:03:00.233Z,0
2022-11-06T04:03:59.963Z,0
2022-11-06T04:04:59.453Z,0
2022-11-06T04:05:59.603Z,0
2022-11-06T04:07:02.290Z,0
2022-11-06T04:07:59.463Z,0
2022-11-06T04:08:59.501Z,0
2022-11-06T04:09:59.484Z,0
2022-11-06T04:10:59.470Z,0
2022-11-06T04:11:59.477Z,0
2022-11-06T04:13:02.492Z,0
2022-11-06T04:13:59.500Z,0
2022-11-06T04:14:59.533Z,0
2022-11-06T04:15:59.486Z,0
2022-11-06T04:16:59.491Z,0
2022-11-06T04:18:02.605Z,0
2022-11-06T04:18:59.506Z,0
2022-11-06T04:19:59.474Z,0
2022-11-06T04:20:59.483Z,0
2022-11-06T04:21:59.525Z,0
2022-11-06T04:22:59.480Z,0
2022-11-06T04:24:02.533Z,0
2022-11-06T04:24:59.508Z,0
2022-11-06T04:25:59.510Z,0
2022-11-06T04:26:59.495Z,0
2022-11-06T04:27:59.495Z,0
2022-11-06T04:29:02.556Z,0
2022-11-06T04:29:59.497Z,0
2022-11-06T04:30:59.489Z,0
2022-11-06T04:31:59.532Z,0
2022-11-06T04:33:06.475Z,0
2022-11-06T04:33:59.513Z,0
2022-11-06T04:35:02.590Z,0
2022-11-06T04:35:59.527Z,0
2022-11-06T04:36:59.519Z,0
2022-11-06T04:37:59.757Z,0
2022-11-06T04:38:59.524Z,0
2022-11-06T04:40:02.658Z,0
2022-11-06T04:40:59.637Z,0
2022-11-06T04:41:59.569Z,0
2022-11-06T04:42:59.517Z,0
2022-11-06T04:43:59.569Z,0
2022-11-06T04:44:59.538Z,0
2022-11-06T04:45:59.567Z,0
2022-11-06T04:46:59.528Z,0
2022-11-06T04:47:59.562Z,0
2022-11-06T04:48:59.688Z,0
2022-11-06T04:49:59.537Z,0
2022-11-06T04:51:02.368Z,0
2022-11-06T04:51:59.527Z,0
2022-11-06T04:53:00.591Z,0
2022-11-06T04:53:59.561Z,0
2022-11-06T04:54:59.600Z,0
2022-11-06T04:55:59.547Z,0
2022-11-06T04:56:59.562Z,0
2022-11-06T04:57:59.625Z,0
2022-11-06T04:58:59.551Z,0
2022-11-06T04:59:59.725Z,0
2022-11-06T05:00:59.949Z,0
2022-11-06T05:02:02.742Z,0
2022-11-06T05:02:59.554Z,0
2022-11-06T05:03:59.543Z,0
2022-11-06T05:04:59.655Z,0
2022-11-06T05:05:59.544Z,0
2022-11-06T05:06:59.559Z,0
2022-11-06T05:07:59.553Z,0
2022-11-06T05:08:59.551Z,0
2022-11-06T05:09:59.609Z,0
2022-11-06T05:10:59.548Z,0
2022-11-06T05:11:59.559Z,0
2022-11-06T05:12:59.561Z,0
2022-11-06T05:13:59.593Z,0
2022-11-06T05:14:59.623Z,0
2022-11-06T05:15:59.575Z,0
2022-11-06T05:16:59.568Z,0
2022-11-06T05:17:59.555Z,0
2022-11-06T05:18:59.561Z,0
2022-11-06T05:19:59.630Z,0
2022-11-06T05:20:59.709Z,0
2022-11-06T05:21:59.583Z,0
2022-11-06T05:22:59.588Z,0
2022-11-06T05:23:59.642Z,0
2022-11-06T05:24:59.601Z,0
2022-11-06T05:25:59.600Z,0
2022-11-06T05:27:05.901Z,0
2022-11-06T05:27:59.572Z,0
2022-11-06T05:28:59.599Z,0
2022-11-06T05:29:59.652Z,0
2022-11-06T05:30:59.608Z,0
2022-11-06T05:31:59.601Z,0
2022-11-06T05:32:59.650Z,0
2022-11-06T05:33:59.591Z,0
2022-11-06T05:34:59.621Z,0
2022-11-06T05:35:59.605Z,0
2022-11-06T05:36:59.633Z,0
2022-11-06T05:37:59.598Z,0
2022-11-06T05:38:59.593Z,0
2022-11-06T05:39:59.633Z,0
2022-11-06T05:40:59.612Z,0
2022-11-06T05:42:00.429Z,0
2022-11-06T05:42:59.616Z,0
2022-11-06T05:43:59.601Z,0
2022-11-06T05:45:02.477Z,0
2022-11-06T05:45:59.610Z,0
2022-11-06T05:46:59.673Z,0
2022-11-06T05:47:59.627Z,0
2022-11-06T05:48:59.610Z,0
2022-11-06T05:49:59.635Z,0
2022-11-06T05:50:59.638Z,0
2022-11-06T05:51:59.633Z,0
2022-11-06T05:52:59.702Z,0
2022-11-06T05:53:59.626Z,0
2022-11-06T05:54:59.671Z,0
2022-11-06T05:56:02.497Z,0
2022-11-06T05:56:59.636Z,4
2022-11-06T05:57:59.675Z,0
2022-11-06T05:58:59.635Z,4
2022-11-06T05:59:59.671Z,0
2022-11-06T06:00:59.792Z,4
2022-11-06T06:02:00.280Z,4
2022-11-06T06:03:00.112Z,4
2022-11-06T06:03:59.630Z,4
2022-11-06T06:04:59.678Z,4
2022-11-06T06:05:59.643Z,8
2022-11-06T06:07:10.098Z,8
2022-11-06T06:07:59.661Z,12
2022-11-06T06:08:59.715Z,8
2022-11-06T06:09:59.661Z,8
2022-11-06T06:10:59.713Z,8
2022-11-06T06:12:02.769Z,8
2022-11-06T06:12:59.655Z,12
2022-11-06T06:13:59.776Z,12
2022-11-06T06:14:59.685Z,12
2022-11-06T06:15:59.644Z,16
2022-11-06T06:16:59.688Z,16
2022-11-06T06:18:02.757Z,16
2022-11-06T06:18:59.674Z,16
2022-11-06T06:19:59.694Z,20
2022-11-06T06:20:59.647Z,16
2022-11-06T06:21:59.656Z,16
2022-11-06T06:23:02.755Z,16
2022-11-06T06:23:59.740Z,20
2022-11-06T06:25:00.088Z,20
2022-11-06T06:25:59.680Z,24
2022-11-06T06:26:59.681Z,24
2022-11-06T06:27:59.693Z,24
2022-11-06T06:29:02.734Z,28
2022-11-06T06:29:59.805Z,28
2022-11-06T06:31:06.577Z,24
2022-11-06T06:31:59.668Z,28
2022-11-06T06:32:59.696Z,28
2022-11-06T06:34:02.490Z,32
2022-11-06T06:34:59.703Z,32
2022-11-06T06:35:59.685Z,36
2022-11-06T06:36:59.714Z,40
2022-11-06T06:37:59.690Z,44
2022-11-06T06:38:59.701Z,44
2022-11-06T06:40:02.855Z,44
2022-11-06T06:40:59.725Z,44
2022-11-06T06:41:59.706Z,48
2022-11-06T06:42:59.693Z,48
2022-11-06T06:43:59.701Z,44
2022-11-06T06:45:03.081Z,44
2022-11-06T06:45:59.697Z,48
2022-11-06T06:46:59.692Z,48
2022-11-06T06:47:59.705Z,48
2022-11-06T06:48:59.736Z,48
2022-11-06T06:49:59.719Z,48
2022-11-06T06:51:02.783Z,48
2022-11-06T06:51:59.707Z,52
2022-11-06T06:52:59.696Z,48
2022-11-06T06:54:02.765Z,52
2022-11-06T06:54:59.734Z,60
2022-11-06T06:56:03.150Z,60
2022-11-06T06:56:59.718Z,60
2022-11-06T06:57:59.738Z,60
2022-11-06T06:58:59.710Z,64
2022-11-06T06:59:59.759Z,64
2022-11-06T07:01:00.023Z,68
2022-11-06T07:02:03.357Z,68
2022-11-06T07:02:59.728Z,72
2022-11-06T07:04:06.952Z,76
2022-11-06T07:04:59.749Z,76
2022-11-06T07:05:59.768Z,76
2022-11-06T07:07:00.955Z,72
2022-11-06T07:07:59.739Z,72
2022-11-06T07:08:59.752Z,76
2022-11-06T07:09:59.806Z,76
2022-11-06T07:10:59.813Z,72
2022-11-06T07:11:59.835Z,76
2022-11-06T07:12:59.730Z,68
2022-11-06T07:13:59.741Z,68
2022-11-06T07:14:59.757Z,76
2022-11-06T07:15:59.746Z,84
2022-11-06T07:17:00.967Z,80
2022-11-06T07:18:02.546Z,80
2022-11-06T07:18:59.734Z,80
2022-11-06T07:19:59.799Z,80
2022-11-06T07:20:59.754Z,84
2022-11-06T07:21:59.833Z,88
2022-11-06T07:22:59.735Z,96
2022-11-06T07:23:59.762Z,96
2022-11-06T07:24:59.779Z,96
2022-11-06T07:25:59.775Z,96
2022-11-06T07:26:59.909Z,108
2022-11-06T07:28:06.808Z,108
2022-11-06T07:29:02.893Z,120
2022-11-06T07:29:59.801Z,132
2022-11-06T07:30:59.833Z,136
2022-11-06T07:31:59.768Z,132
2022-11-06T07:32:59.854Z,116
2022-11-06T07:33:59.774Z,116
2022-11-06T07:34:59.815Z,128
2022-11-06T07:35:59.790Z,124
2022-11-06T07:37:01.969Z,124
2022-11-06T07:37:59.764Z,148
2022-11-06T07:38:59.793Z,144
2022-11-06T07:39:59.802Z,132
2022-11-06T07:41:00.030Z,124
2022-11-06T07:41:59.875Z,112
2022-11-06T07:42:59.769Z,124
2022-11-06T07:43:59.966Z,116
2022-11-06T07:44:59.807Z,108
2022-11-06T07:45:59.789Z,120
2022-11-06T07:46:59.815Z,116
2022-11-06T07:48:05.745Z,108
2022-11-06T07:48:59.852Z,116
2022-11-06T07:49:59.825Z,128
2022-11-06T07:50:59.619Z,132
2022-11-06T07:51:59.820Z,136
2022-11-06T07:52:59.789Z,124
2022-11-06T07:53:59.847Z,112
2022-11-06T07:54:59.822Z,108
2022-11-06T07:55:59.837Z,104
2022-11-06T07:56:59.822Z,112
2022-11-06T07:57:59.793Z,124
2022-11-06T07:58:59.818Z,136
2022-11-06T07:59:59.984Z,140
2022-11-06T08:01:00.224Z,132
2022-11-06T08:02:00.407Z,128
2022-11-06T08:02:59.827Z,144
2022-11-06T08:03:59.832Z,160
2022-11-06T08:04:59.870Z,156
2022-11-06T08:05:59.823Z,156
2022-11-06T08:06:59.812Z,176
2022-11-06T08:07:59.860Z,180
2022-11-06T08:09:05.533Z,164
2022-11-06T08:09:59.846Z,180
2022-11-06T08:10:59.863Z,196
2022-11-06T08:12:02.953Z,176
2022-11-06T08:12:59.873Z,152
2022-11-06T08:13:59.871Z,152
2022-11-06T08:14:59.870Z,144
2022-11-06T08:15:59.882Z,128
2022-11-06T08:16:59.835Z,136
2022-11-06T08:17:59.833Z,156
2022-11-06T08:18:59.842Z,144
2022-11-06T08:19:59.855Z,136
2022-11-06T08:20:59.945Z,148
2022-11-06T08:21:59.847Z,160
2022-11-06T08:23:02.926Z,144
2022-11-06T08:23:59.843Z,148
2022-11-06T08:24:59.860Z,144
2022-11-06T08:25:59.881Z,144
2022-11-06T08:26:59.840Z,152
2022-11-06T08:27:59.900Z,160
2022-11-06T08:28:59.852Z,164
2022-11-06T08:29:59.882Z,168
2022-11-06T08:30:59.859Z,168
2022-11-06T08:31:59.895Z,176
2022-11-06T08:32:59.557Z,164
2022-11-06T08:34:02.639Z,164
2022-11-06T08:34:59.892Z,192
2022-11-06T08:35:59.853Z,184
2022-11-06T08:36:59.976Z,176
2022-11-06T08:37:59.921Z,184
2022-11-06T08:39:02.917Z,192
2022-11-06T08:39:59.892Z,184
2022-11-06T08:41:00.840Z,168
2022-11-06T08:41:59.866Z,180
2022-11-06T08:42:59.869Z,184
2022-11-06T08:43:59.870Z,196
2022-11-06T08:45:03.381Z,168
2022-11-06T08:45:59.868Z,176
2022-11-06T08:46:59.864Z,184
2022-11-06T08:47:59.915Z,184
2022-11-06T08:48:59.933Z,180
2022-11-06T08:50:01.138Z,168
2022-11-06T08:50:59.889Z,184
2022-11-06T08:51:59.876Z,192
2022-11-06T08:52:59.919Z,188
2022-11-06T08:54:00.374Z,212
2022-11-06T08:55:00.007Z,208
2022-11-06T08:56:02.991Z,200
2022-11-06T08:56:59.896Z,184
2022-11-06T08:57:59.892Z,204
2022-11-06T08:59:02.791Z,200
2022-11-06T08:59:59.901Z,184
2022-11-06T09:01:03.074Z,180
2022-11-06T09:02:00.523Z,180
2022-11-06T09:02:59.903Z,208
2022-11-06T09:03:59.960Z,208
2022-11-06T09:04:59.917Z,204
2022-11-06T09:05:59.898Z,188
2022-11-06T09:07:02.659Z,240
2022-11-06T09:07:59.894Z,212
2022-11-06T09:08:59.982Z,224
2022-11-06T09:09:59.922Z,236
2022-11-06T09:11:05.165Z,220
2022-11-06T09:12:02.707Z,204
2022-11-06T09:12:59.916Z,236
2022-11-06T09:13:59.902Z,256
2022-11-06T09:14:59.908Z,224
2022-11-06T09:15:59.951Z,204
2022-11-06T09:16:59.915Z,212
2022-11-06T09:18:02.724Z,204
2022-11-06T09:18:59.961Z,220
2022-11-06T09:20:00.000Z,220
2022-11-06T09:20:59.985Z,212
2022-11-06T09:22:01.867Z,224
2022-11-06T09:23:02.700Z,208
2022-11-06T09:23:59.933Z,228
2022-11-06T09:25:15.346Z,220
2022-11-06T09:25:59.931Z,212
2022-11-06T09:26:59.964Z,216
2022-11-06T09:28:06.080Z,216
2022-11-06T09:29:02.834Z,208
2022-11-06T09:29:59.937Z,228
2022-11-06T09:30:59.948Z,216
2022-11-06T09:32:00.088Z,192
2022-11-06T09:32:59.942Z,220
2022-11-06T09:34:02.840Z,240
2022-11-06T09:34:59.954Z,212
2022-11-06T09:36:00.127Z,216
2022-11-06T09:36:59.946Z,204
2022-11-06T09:37:59.966Z,216
2022-11-06T09:38:59.953Z,212
2022-11-06T09:40:06.624Z,200
2022-11-06T09:40:59.986Z,188
2022-11-06T09:41:59.937Z,204
2022-11-06T09:43:00.170Z,204
2022-11-06T09:44:15.322Z,204
2022-11-06T09:45:03.052Z,208
2022-11-06T09:46:02.073Z,212
2022-11-06T09:46:59.955Z,224
2022-11-06T09:47:59.948Z,232
2022-11-06T09:48:59.969Z,212
2022-11-06T09:49:59.949Z,216
2022-11-06T09:50:59.967Z,212
2022-11-06T09:52:00.793Z,208
2022-11-06T09:53:08.008Z,192
2022-11-06T09:54:00.397Z,192
2022-11-06T09:55:07.098Z,208
2022-11-06T09:56:03.570Z,192
2022-11-06T09:56:59.981Z,188
2022-11-06T09:58:00.158Z,208
2022-11-06T09:59:00.108Z,208
2022-11-06T10:00:00.004Z,208
2022-11-06T10:01:00.345Z,224
2022-11-06T10:02:00.981Z,276
2022-11-06T10:03:00.362Z,280
2022-11-06T10:03:59.969Z,252
2022-11-06T10:04:59.951Z,224
2022-11-06T10:06:00.000Z,220
2022-11-06T10:06:59.979Z,224
2022-11-06T10:08:00.125Z,236
2022-11-06T10:08:59.993Z,264
2022-11-06T10:09:59.974Z,308
2022-11-06T10:11:00.005Z,332
2022-11-06T10:11:59.995Z,276
2022-11-06T10:13:00.003Z,252
2022-11-06T10:13:59.977Z,228
2022-11-06T10:15:00.013Z,216
2022-11-06T10:16:00.013Z,212
2022-11-06T10:16:59.993Z,212
2022-11-06T10:18:00.005Z,204
2022-11-06T10:19:00.094Z,192
2022-11-06T10:19:59.827Z,196
2022-11-06T10:21:00.040Z,196
2022-11-06T10:22:00.014Z,208
2022-11-06T10:22:59.990Z,196
2022-11-06T10:24:00.051Z,188
2022-11-06T10:25:00.004Z,184
2022-11-06T10:26:00.034Z,196
2022-11-06T10:27:00.019Z,204
2022-11-06T10:28:00.008Z,204
2022-11-06T10:29:00.124Z,200
2022-11-06T10:30:00.009Z,200
2022-11-06T10:31:00.154Z,180
2022-11-06T10:32:00.006Z,184
2022-11-06T10:33:00.018Z,192
2022-11-06T10:34:00.008Z,220
2022-11-06T10:35:00.029Z,232
2022-11-06T10:36:00.054Z,244
2022-11-06T10:37:00.044Z,240
2022-11-06T10:38:00.035Z,220
2022-11-06T10:39:02.818Z,208
2022-11-06T10:40:00.045Z,200
2022-11-06T10:41:00.068Z,192
2022-11-06T10:42:00.044Z,188
2022-11-06T10:43:00.036Z,188
2022-11-06T10:44:00.047Z,184
2022-11-06T10:45:00.303Z,184
2022-11-06T10:46:00.063Z,184
2022-11-06T10:47:00.062Z,188
2022-11-06T10:48:00.041Z,200
2022-11-06T10:49:00.042Z,216
2022-11-06T10:50:03.177Z,212
2022-11-06T10:51:00.116Z,220
2022-11-06T10:52:00.037Z,224
2022-11-06T10:53:00.067Z,212
2022-11-06T10:54:00.032Z,212
2022-11-06T10:55:00.080Z,200
2022-11-06T10:56:00.092Z,196
2022-11-06T10:57:00.054Z,208
2022-11-06T10:58:00.209Z,212
2022-11-06T10:59:00.099Z,224
2022-11-06T11:00:00.053Z,236
2022-11-06T11:01:03.228Z,216
2022-11-06T11:02:01.631Z,192
2022-11-06T11:03:00.181Z,192
2022-11-06T11:04:00.057Z,212
2022-11-06T11:05:04.740Z,236
2022-11-06T11:06:00.970Z,232
2022-11-06T11:07:00.085Z,228
2022-11-06T11:08:00.125Z,228
2022-11-06T11:09:00.173Z,232
2022-11-06T11:10:00.108Z,232
2022-11-06T11:11:12.025Z,240
2022-11-06T11:12:02.825Z,248
2022-11-06T11:13:04.054Z,256
2022-11-06T11:14:00.068Z,252
2022-11-06T11:15:00.115Z,236
2022-11-06T11:16:00.138Z,220
2022-11-06T11:17:01.346Z,208
2022-11-06T11:18:00.129Z,204
2022-11-06T11:19:00.235Z,184
2022-11-06T11:20:00.115Z,172
2022-11-06T11:21:00.217Z,172
2022-11-06T11:22:00.106Z,168
2022-11-06T11:23:03.400Z,168
2022-11-06T11:24:00.082Z,168
2022-11-06T11:25:00.092Z,168
2022-11-06T11:26:00.110Z,176
2022-11-06T11:27:00.166Z,172
2022-11-06T11:28:09.516Z,180
2022-11-06T11:29:00.182Z,180
2022-11-06T11:30:00.139Z,184
2022-11-06T11:31:00.098Z,188
2022-11-06T11:32:00.110Z,180
2022-11-06T11:33:00.115Z,180
2022-11-06T11:34:03.208Z,188
2022-11-06T11:35:03.607Z,196
2022-11-06T11:36:00.106Z,196
2022-11-06T11:37:00.129Z,200
2022-11-06T11:38:00.123Z,200
2022-11-06T11:39:02.975Z,200
2022-11-06T11:40:00.103Z,212
2022-11-06T11:41:00.096Z,232
2022-11-06T11:42:00.124Z,240
2022-11-06T11:43:00.175Z,240
2022-11-06T11:44:00.106Z,236
2022-11-06T11:45:02.924Z,208
2022-11-06T11:46:00.131Z,196
2022-11-06T11:47:00.128Z,192
2022-11-06T11:48:00.129Z,188
2022-11-06T11:49:00.226Z,180
2022-11-06T11:50:03.339Z,156
2022-11-06T11:51:00.210Z,136
2022-11-06T11:52:00.185Z,140
2022-11-06T11:53:02.280Z,140
2022-11-06T11:54:00.124Z,136
2022-11-06T11:55:00.137Z,132
2022-11-06T11:56:02.915Z,132
2022-11-06T11:57:15.655Z,128
2022-11-06T11:58:00.233Z,132
2022-11-06T11:59:00.246Z,152
2022-11-06T12:00:03.892Z,168
2022-11-06T12:01:01.424Z,164
2022-11-06T12:02:00.879Z,168
2022-11-06T12:03:00.488Z,160
2022-11-06T12:04:00.167Z,152
2022-11-06T12:05:00.277Z,152
2022-11-06T12:06:00.172Z,164
2022-11-06T12:07:02.955Z,156
2022-11-06T12:08:00.149Z,152
2022-11-06T12:09:00.166Z,148
2022-11-06T12:10:00.172Z,160
2022-11-06T12:11:00.220Z,176
2022-11-06T12:12:02.934Z,180
2022-11-06T12:13:00.183Z,196
2022-11-06T12:14:00.179Z,200
2022-11-06T12:15:00.254Z,204
2022-11-06T12:16:02.412Z,204
2022-11-06T12:17:00.179Z,216
2022-11-06T12:18:00.175Z,208
2022-11-06T12:19:05.348Z,192
2022-11-06T12:20:00.176Z,204
2022-11-06T12:21:00.399Z,200
2022-11-06T12:22:00.286Z,192
2022-11-06T12:23:03.043Z,176
2022-11-06T12:24:00.020Z,168
2022-11-06T12:25:00.190Z,184
2022-11-06T12:26:00.190Z,184
2022-11-06T12:27:00.235Z,168
2022-11-06T12:28:00.182Z,164
2022-11-06T12:29:07.725Z,168
2022-11-06T12:30:00.180Z,176
2022-11-06T12:31:00.236Z,164
2022-11-06T12:32:00.204Z,160
2022-11-06T12:33:00.180Z,172
2022-11-06T12:34:21.526Z,192
2022-11-06T12:35:00.186Z,204
2022-11-06T12:36:00.193Z,208
2022-11-06T12:37:00.365Z,212
2022-11-06T12:38:00.214Z,208
2022-11-06T12:39:00.188Z,208
2022-11-06T12:40:00.184Z,208
2022-11-06T12:41:00.197Z,208
2022-11-06T12:42:00.222Z,192
2022-11-06T12:43:00.202Z,188
2022-11-06T12:44:00.222Z,172
2022-11-06T12:45:00.196Z,172
2022-11-06T12:46:00.201Z,200
2022-11-06T12:47:00.345Z,220
2022-11-06T12:48:00.208Z,228
2022-11-06T12:49:00.229Z,228
2022-11-06T12:50:03.095Z,208
2022-11-06T12:51:00.211Z,212
2022-11-06T12:52:00.250Z,204
2022-11-06T12:53:06.552Z,216
2022-11-06T12:54:00.317Z,212
2022-11-06T12:55:00.244Z,228
2022-11-06T12:56:00.237Z,252
2022-11-06T12:57:00.241Z,268
2022-11-06T12:58:00.245Z,256
2022-11-06T12:59:00.217Z,252
2022-11-06T13:00:00.228Z,244
2022-11-06T13:01:00.429Z,236
2022-11-06T13:02:01.048Z,220
2022-11-06T13:03:00.292Z,236
2022-11-06T13:04:00.264Z,232
2022-11-06T13:05:00.268Z,236
2022-11-06T13:06:03.064Z,228
2022-11-06T13:07:00.265Z,208
2022-11-06T13:08:00.237Z,216
2022-11-06T13:09:00.281Z,212
2022-11-06T13:10:00.223Z,212
2022-11-06T13:11:00.235Z,216
2022-11-06T13:12:00.258Z,204
2022-11-06T13:13:00.246Z,184
2022-11-06T13:14:00.239Z,184
2022-11-06T13:15:00.256Z,200
2022-11-06T13:16:00.256Z,220
2022-11-06T13:17:03.414Z,208
2022-11-06T13:18:00.250Z,192
2022-11-06T13:19:00.550Z,184
2022-11-06T13:20:00.253Z,200
2022-11-06T13:21:00.272Z,200
2022-11-06T13:22:00.317Z,204
2022-11-06T13:23:00.280Z,212
2022-11-06T13:24:00.248Z,208
2022-11-06T13:25:00.347Z,204
2022-11-06T13:26:00.278Z,204
2022-11-06T13:27:00.295Z,200
2022-11-06T13:28:03.050Z,184
2022-11-06T13:29:00.297Z,188
2022-11-06T13:30:00.288Z,184
2022-11-06T13:31:00.272Z,176
2022-11-06T13:32:00.305Z,160
2022-11-06T13:33:03.306Z,168
2022-11-06T13:34:00.283Z,156
2022-11-06T13:35:00.355Z,152
2022-11-06T13:36:00.284Z,164
2022-11-06T13:37:00.316Z,160
2022-11-06T13:38:00.323Z,164
2022-11-06T13:39:03.357Z,168
2022-11-06T13:40:00.288Z,172
2022-11-06T13:41:06.751Z,168
2022-11-06T13:42:00.311Z,160
2022-11-06T13:43:00.294Z,156
2022-11-06T13:44:01.434Z,164
2022-11-06T13:45:00.289Z,172
2022-11-06T13:46:00.298Z,164
2022-11-06T13:47:00.330Z,152
2022-11-06T13:48:00.444Z,156
2022-11-06T13:49:00.303Z,176
2022-11-06T13:50:03.339Z,192
2022-11-06T13:51:00.404Z,176
2022-11-06T13:52:00.328Z,164
2022-11-06T13:53:00.305Z,196
2022-11-06T13:54:06.365Z,228
2022-11-06T13:55:03.389Z,228
2022-11-06T13:56:00.723Z,248
2022-11-06T13:57:00.509Z,232
2022-11-06T13:58:00.318Z,188
2022-11-06T13:59:00.301Z,188
2022-11-06T14:00:00.331Z,188
2022-11-06T14:01:03.758Z,184
2022-11-06T14:02:00.995Z,176
2022-11-06T14:03:00.327Z,168
2022-11-06T14:04:00.328Z,156
2022-11-06T14:05:00.800Z,156
2022-11-06T14:06:03.441Z,148
2022-11-06T14:07:00.366Z,144
2022-11-06T14:08:00.340Z,140
2022-11-06T14:09:00.389Z,140
2022-11-06T14:10:00.352Z,136
2022-11-06T14:11:00.397Z,140
2022-11-06T14:12:03.260Z,136
2022-11-06T14:13:00.363Z,128
2022-11-06T14:14:00.375Z,128
2022-11-06T14:15:00.349Z,136